createdAt,value
2023-08-31T00:04:31.722Z,26.00
2023-08-31T00:09:34.103Z,26.00
2023-08-31T00:14:38.354Z,26.00
2023-08-31T00:19:40.535Z,25.90
2023-08-31T00:24:43.406Z,25.90
2023-08-31T00:29:50.464Z,25.90
2023-08-31T00:34:52.707Z,25.90
2023-08-31T00:39:55.454Z,25.90
2023-08-31T00:44:58.052Z,25.80
2023-08-31T00:50:00.886Z,25.80
2023-08-31T00:55:07.297Z,25.70
2023-08-31T01:00:10.009Z,25.70
2023-08-31T01:15:45.328Z,25.80
2023-08-31T01:26:12.084Z,25.80
2023-08-31T01:31:15.067Z,25.80
2023-08-31T01:36:26.336Z,25.80
2023-08-31T01:41:30.367Z,25.70
2023-08-31T01:46:32.683Z,25.80
2023-08-31T01:51:35.566Z,25.70
2023-08-31T01:56:37.689Z,25.70
2023-08-31T02:01:39.917Z,25.70
2023-08-31T02:06:42.254Z,25.70
2023-08-31T02:11:46.005Z,25.70
2023-08-31T02:16:48.422Z,25.70
2023-08-31T02:21:50.490Z,25.60
2023-08-31T02:26:53.469Z,25.60
2023-08-31T02:31:55.588Z,25.60
2023-08-31T02:36:57.674Z,25.60
2023-08-31T02:41:59.794Z,25.50
2023-08-31T02:47:02.090Z,25.50
2023-08-31T02:52:04.469Z,25.40
2023-08-31T02:57:06.626Z,25.40
2023-08-31T03:02:09.352Z,25.40
2023-08-31T03:07:14.596Z,25.30
2023-08-31T03:12:16.831Z,25.20
2023-08-31T03:17:18.900Z,25.20
2023-08-31T03:22:21.214Z,25.10
2023-08-31T03:27:23.330Z,25.10
2023-08-31T03:32:25.505Z,25.10
2023-08-31T03:37:27.622Z,25.00
2023-08-31T03:42:31.359Z,25.00
2023-08-31T03:47:33.973Z,25.00
2023-08-31T03:52:36.442Z,25.00
2023-08-31T03:57:38.616Z,25.00
2023-08-31T04:02:49.226Z,24.90
2023-08-31T04:07:56.142Z,24.90
2023-08-31T04:12:58.432Z,24.80
2023-08-31T04:18:00.631Z,24.80
2023-08-31T04:23:02.926Z,24.80
2023-08-31T04:28:05.427Z,24.80
2023-08-31T04:33:08.252Z,24.90
2023-08-31T04:38:10.744Z,24.80
2023-08-31T04:43:13.199Z,24.80
2023-08-31T04:48:16.791Z,24.80
2023-08-31T04:53:18.930Z,24.80
2023-08-31T04:58:21.026Z,24.80
2023-08-31T05:03:23.123Z,24.80
2023-08-31T05:08:25.233Z,24.90
2023-08-31T05:13:27.315Z,24.90
2023-08-31T05:18:29.431Z,24.90
2023-08-31T05:23:31.634Z,25.00
2023-08-31T05:28:33.783Z,25.00
2023-08-31T05:33:35.915Z,25.10
2023-08-31T05:38:38.065Z,25.20
2023-08-31T05:43:41.445Z,25.30
2023-08-31T05:48:44.082Z,25.30
2023-08-31T05:53:46.376Z,25.40
2023-08-31T05:58:48.588Z,25.50
2023-08-31T06:03:50.751Z,25.60
2023-08-31T06:08:54.681Z,25.70
2023-08-31T06:13:56.895Z,25.90
2023-08-31T06:18:59.230Z,26.20
2023-08-31T06:24:01.447Z,26.40
2023-08-31T06:29:04.684Z,27.00
2023-08-31T06:34:26.444Z,27.60
2023-08-31T06:39:28.844Z,28.10
2023-08-31T06:44:31.867Z,29.10
2023-08-31T06:49:35.500Z,30.90
2023-08-31T06:54:37.619Z,32.60
2023-08-31T06:59:39.810Z,34.00
2023-08-31T07:04:41.991Z,34.90
2023-08-31T07:09:44.906Z,35.70
2023-08-31T07:14:47.051Z,36.70
2023-08-31T07:19:49.205Z,37.50
2023-08-31T07:24:51.393Z,38.20
2023-08-31T07:29:56.299Z,38.90
2023-08-31T07:34:58.502Z,39.30
2023-08-31T07:40:00.623Z,39.50
2023-08-31T07:45:02.779Z,39.20
2023-08-31T07:50:08.188Z,38.20
2023-08-31T07:55:28.909Z,37.10
2023-08-31T08:00:31.079Z,35.90
2023-08-31T08:05:33.187Z,35.20
2023-08-31T08:10:35.336Z,34.40
2023-08-31T08:15:38.570Z,34.10
2023-08-31T08:20:40.700Z,33.80
2023-08-31T08:25:42.877Z,33.50
2023-08-31T08:30:45.025Z,33.20
2023-08-31T08:35:47.605Z,32.80
2023-08-31T08:40:49.834Z,32.80
2023-08-31T08:45:52.496Z,32.70
2023-08-31T08:50:55.564Z,32.80
2023-08-31T08:55:58.361Z,32.80
2023-08-31T09:01:02.691Z,32.80
2023-08-31T09:06:09.004Z,32.80
2023-08-31T09:11:21.760Z,32.80
2023-08-31T09:16:29.461Z,32.70
2023-08-31T09:21:42.014Z,32.70
2023-08-31T09:26:49.494Z,32.90
2023-08-31T09:31:51.912Z,32.40
2023-08-31T09:36:54.125Z,32.20
2023-08-31T09:41:57.122Z,32.10
2023-08-31T09:47:00.434Z,31.20
2023-08-31T09:52:05.914Z,30.70
2023-08-31T09:57:08.670Z,30.40
2023-08-31T10:02:16.329Z,30.20
2023-08-31T10:07:18.700Z,30.10
2023-08-31T10:12:21.989Z,30.10
2023-08-31T10:17:25.164Z,30.00
2023-08-31T10:22:27.508Z,30.30
2023-08-31T10:27:29.775Z,30.10
2023-08-31T10:32:31.945Z,29.90
2023-08-31T10:37:34.249Z,29.70
2023-08-31T10:42:46.669Z,29.50
2023-08-31T10:47:48.921Z,29.40
2023-08-31T10:53:11.331Z,29.10
2023-08-31T10:58:13.739Z,29.00
2023-08-31T11:03:16.191Z,28.80
2023-08-31T11:08:24.527Z,28.70
2023-08-31T11:13:26.777Z,28.70
2023-08-31T11:18:29.701Z,28.50
2023-08-31T11:23:31.813Z,28.40
2023-08-31T11:28:35.272Z,28.30
2023-08-31T11:33:38.932Z,28.40
2023-08-31T11:38:41.696Z,28.50
2023-08-31T11:43:44.754Z,28.40
2023-08-31T11:48:46.992Z,28.30
2023-08-31T11:53:49.179Z,28.30
2023-08-31T11:59:04.613Z,28.20
2023-08-31T12:04:12.681Z,28.30
2023-08-31T12:09:15.136Z,28.30
2023-08-31T12:14:23.357Z,28.50
2023-08-31T12:19:29.558Z,28.50
2023-08-31T12:24:39.655Z,28.60
2023-08-31T12:29:42.101Z,28.50
2023-08-31T12:34:44.303Z,28.50
2023-08-31T12:40:07.949Z,28.30
2023-08-31T12:45:10.327Z,28.20
2023-08-31T12:50:12.426Z,28.00
2023-08-31T12:55:15.373Z,27.90
2023-08-31T13:00:18.123Z,27.70
2023-08-31T13:05:21.570Z,27.60
2023-08-31T13:10:23.714Z,27.30
2023-08-31T13:15:25.786Z,27.10
2023-08-31T13:20:28.487Z,26.80
2023-08-31T13:25:31.813Z,26.80
2023-08-31T13:30:33.984Z,26.70
2023-08-31T13:35:54.804Z,26.80
2023-08-31T13:40:57.847Z,26.90
2023-08-31T13:46:00.051Z,26.90
2023-08-31T13:51:20.904Z,26.90
2023-08-31T13:56:23.013Z,27.10
2023-08-31T14:01:25.156Z,27.10
2023-08-31T14:06:27.277Z,27.20
2023-08-31T14:11:31.010Z,27.30
2023-08-31T14:16:34.708Z,27.50
2023-08-31T14:21:36.901Z,27.40
2023-08-31T14:26:39.713Z,27.20
2023-08-31T14:31:44.008Z,27.20
2023-08-31T14:36:47.617Z,27.20
2023-08-31T14:41:49.703Z,27.10
2023-08-31T14:46:51.824Z,27.00
2023-08-31T14:51:54.061Z,26.70
2023-08-31T14:56:56.241Z,26.60
2023-08-31T15:02:17.497Z,26.50
2023-08-31T15:07:19.625Z,26.40
2023-08-31T15:12:21.749Z,26.20
2023-08-31T15:17:23.837Z,26.10
2023-08-31T15:22:25.922Z,26.20
2023-08-31T15:27:28.006Z,26.10
2023-08-31T15:32:30.119Z,26.10
2023-08-31T15:37:32.426Z,26.10
2023-08-31T15:42:34.828Z,26.10
2023-08-31T15:47:37.017Z,26.40
2023-08-31T15:52:39.178Z,26.60
2023-08-31T15:57:41.365Z,26.80
2023-08-31T16:02:43.478Z,26.40
2023-08-31T16:07:45.726Z,25.80
2023-08-31T16:12:47.878Z,25.30
2023-08-31T16:17:51.853Z,25.30
2023-08-31T16:22:54.038Z,25.20
2023-08-31T16:27:57.236Z,25.20
2023-08-31T16:32:59.455Z,25.20
2023-08-31T16:38:01.637Z,25.10
2023-08-31T16:43:04.161Z,25.10
2023-08-31T16:48:06.703Z,25.10
2023-08-31T16:53:09.416Z,25.00
2023-08-31T16:58:11.943Z,25.00
2023-08-31T17:03:15.261Z,25.00
2023-08-31T17:08:17.432Z,25.00
2023-08-31T17:18:54.081Z,25.00
2023-08-31T17:23:56.166Z,24.90
2023-08-31T17:28:58.392Z,24.80
2023-08-31T17:34:00.623Z,24.60
2023-08-31T17:39:22.450Z,24.60
2023-08-31T17:44:43.116Z,24.60
2023-08-31T17:49:45.363Z,24.60
2023-08-31T17:54:47.815Z,24.60
2023-08-31T17:59:50.195Z,24.60
2023-08-31T18:05:11.060Z,24.60
2023-08-31T18:10:13.256Z,24.70
2023-08-31T18:15:15.788Z,24.70
2023-08-31T18:20:18.478Z,24.70
2023-08-31T18:25:20.558Z,24.70
2023-08-31T18:30:22.645Z,24.70
2023-08-31T18:35:24.760Z,24.70
2023-08-31T18:40:26.836Z,24.80
2023-08-31T18:45:28.981Z,24.60
2023-08-31T18:50:31.055Z,24.50
2023-08-31T18:55:34.875Z,24.50
2023-08-31T19:00:37.252Z,24.30
2023-08-31T19:05:39.387Z,24.20
2023-08-31T19:10:41.504Z,24.00
2023-08-31T19:15:43.673Z,23.90
2023-08-31T19:20:45.762Z,23.80
2023-08-31T19:25:47.831Z,23.60
2023-08-31T19:30:49.917Z,23.60
2023-08-31T19:35:57.899Z,23.60
2023-08-31T19:41:01.255Z,23.50
2023-08-31T19:46:03.887Z,23.50
2023-08-31T19:51:07.704Z,23.50
2023-08-31T19:56:09.825Z,23.50
2023-08-31T20:01:12.195Z,23.50
2023-08-31T20:06:14.308Z,23.50
2023-08-31T20:11:16.612Z,23.50
2023-08-31T20:16:18.726Z,23.40
2023-08-31T20:21:20.920Z,23.50
2023-08-31T20:26:23.069Z,23.50
2023-08-31T20:31:25.247Z,23.50
2023-08-31T20:36:28.640Z,23.50
2023-08-31T20:41:31.052Z,23.50
2023-08-31T20:46:37.584Z,23.50
2023-08-31T20:51:41.868Z,23.50
2023-08-31T20:56:43.981Z,23.50
2023-08-31T21:01:46.125Z,23.50
2023-08-31T21:06:49.879Z,23.40
2023-08-31T21:11:51.998Z,23.40
2023-08-31T21:16:54.137Z,23.40
2023-08-31T21:21:56.763Z,23.40
2023-08-31T21:26:58.824Z,23.50
2023-08-31T21:32:01.902Z,23.40
2023-08-31T21:37:04.684Z,23.40
2023-08-31T21:42:07.058Z,23.40
2023-08-31T21:47:09.148Z,23.30
2023-08-31T21:52:30.143Z,23.40
2023-08-31T21:57:32.249Z,23.40
2023-08-31T22:02:34.501Z,23.30
2023-08-31T22:07:39.206Z,23.20
2023-08-31T22:12:41.779Z,23.20
2023-08-31T22:17:45.354Z,23.20
2023-08-31T22:22:50.469Z,23.20
2023-08-31T22:27:54.061Z,23.20
2023-08-31T22:32:56.722Z,23.10
2023-08-31T22:37:58.849Z,23.00
2023-08-31T22:43:01.213Z,23.00
2023-08-31T22:48:03.504Z,22.90
2023-08-31T22:53:05.661Z,22.90
2023-08-31T22:58:07.756Z,22.80
2023-08-31T23:03:12.412Z,22.80
2023-08-31T23:08:15.272Z,22.80
2023-08-31T23:13:17.695Z,22.80
2023-08-31T23:18:20.343Z,22.70
2023-08-31T23:23:41.219Z,22.80
2023-08-31T23:28:43.298Z,22.90
2023-08-31T23:33:46.551Z,22.90
2023-08-31T23:38:51.443Z,22.90
2023-08-31T23:44:12.369Z,22.90
2023-08-31T23:49:14.422Z,23.00
2023-08-31T23:54:16.571Z,23.00
2023-08-31T23:59:18.693Z,23.10
